< < Back
Terminal Aerodrome Forecast


Current Version              Previous Versions:   1  2  3  4  5  6  7  8  9  

Terminal Aerodrome Forecast

735
FTUS44 KHUN 271132
TAFHSV
TAF
KHSV 271132Z 2712/2812 17005KT 4SM BR OVC006
     FM271500 20005KT P6SM BKN015
     FM271800 22005KT P6SM BKN030
     FM272000 23010KT P6SM BKN040
      TEMPO 2721/2801 5SM -TSRA BR BKN025CB
     FM280100 VRB03KT P6SM BKN050
     FM280600 VRB03KT P6SM BKN250=



Latest METAR

894
SAUS80 KWBC 272000 RRA
MTRHSV
METAR KHSV 271953Z 08006KT 10SM SCT044 SCT090 BKN250 30/20 A3015 RMK AO2
SLP203 T03000200


USA.gov is the U.S. government's official web portal to all federal, state and local government web resources and services.